createdAt,value
2023-11-10T00:01:23.071Z,14.70
2023-11-10T00:04:07.864Z,14.50
2023-11-10T00:06:44.877Z,16.70
2023-11-10T00:09:35.886Z,15.20
2023-11-10T00:12:26.716Z,18.00
2023-11-10T00:14:59.972Z,14.80
2023-11-10T00:17:36.059Z,14.20
2023-11-10T00:20:18.906Z,16.00
2023-11-10T00:22:55.581Z,15.70
2023-11-10T00:25:28.846Z,14.00
2023-11-10T00:28:11.132Z,16.70
2023-11-10T00:30:43.883Z,13.90
2023-11-10T00:33:26.802Z,16.90
2023-11-10T00:35:58.360Z,15.10
2023-11-10T00:38:52.141Z,14.50
2023-11-10T00:41:26.674Z,13.70
2023-11-10T00:44:02.476Z,15.20
2023-11-10T00:46:41.617Z,13.00
2023-11-10T00:49:15.499Z,15.80
2023-11-10T00:51:48.133Z,13.20
2023-11-10T00:54:25.011Z,14.40
2023-11-10T00:57:00.576Z,13.40
2023-11-10T00:59:35.236Z,13.50
2023-11-10T01:02:08.476Z,12.00
2023-11-10T01:04:45.780Z,12.40
2023-11-10T01:07:22.128Z,12.90
2023-11-10T01:09:56.631Z,13.50
2023-11-10T01:12:35.393Z,13.10
2023-11-10T01:15:13.583Z,17.50
2023-11-10T01:17:45.622Z,13.90
2023-11-10T01:20:17.285Z,13.40
2023-11-10T01:22:48.788Z,14.40
2023-11-10T01:25:20.273Z,14.40
2023-11-10T01:27:51.665Z,12.60
2023-11-10T01:30:28.200Z,16.10
2023-11-10T01:33:02.605Z,14.10
2023-11-10T01:35:34.235Z,12.70
2023-11-10T01:38:06.690Z,14.40
2023-11-10T01:40:44.749Z,11.60
2023-11-10T01:43:17.463Z,11.70
2023-11-10T01:45:49.151Z,19.20
2023-11-10T01:48:22.099Z,14.90
2023-11-10T01:50:53.999Z,11.40
2023-11-10T01:53:26.029Z,15.30
2023-11-10T01:55:58.907Z,10.50
2023-11-10T01:58:31.293Z,12.90
2023-11-10T02:01:03.379Z,13.50
2023-11-10T02:03:34.912Z,11.20
2023-11-10T02:06:42.495Z,12.60
2023-11-10T02:19:49.543Z,11.70
2023-11-10T02:22:20.880Z,12.50
2023-11-10T02:24:55.216Z,12.90
2023-11-10T02:27:28.419Z,13.90
2023-11-10T02:29:59.884Z,12.80
2023-11-10T02:32:31.635Z,11.10
2023-11-10T02:35:03.283Z,9.80
2023-11-10T02:37:34.800Z,10.90
2023-11-10T02:40:08.209Z,10.90
2023-11-10T02:42:40.042Z,10.90
2023-11-10T02:45:13.506Z,11.50
2023-11-10T02:47:45.010Z,11.40
2023-11-10T02:50:19.250Z,11.70
2023-11-10T02:52:52.062Z,11.20
2023-11-10T02:55:23.443Z,12.50
2023-11-10T02:57:54.874Z,12.30
2023-11-10T03:00:26.864Z,12.20
2023-11-10T03:02:58.227Z,12.60
2023-11-10T03:05:29.667Z,13.30
2023-11-10T03:08:01.137Z,11.60
2023-11-10T03:10:32.659Z,11.40
2023-11-10T03:13:04.886Z,12.40
2023-11-10T03:15:36.426Z,12.80
2023-11-10T03:18:08.293Z,9.30
2023-11-10T03:20:41.156Z,12.10
2023-11-10T03:23:12.470Z,10.10
2023-11-10T03:25:44.051Z,10.40
2023-11-10T03:28:15.485Z,11.20
2023-11-10T03:30:47.041Z,11.00
2023-11-10T03:33:19.254Z,10.40
2023-11-10T03:35:50.830Z,11.00
2023-11-10T03:38:22.234Z,10.50
2023-11-10T03:40:55.157Z,11.20
2023-11-10T03:43:26.877Z,11.60
2023-11-10T03:45:58.719Z,11.00
2023-11-10T03:48:30.590Z,10.50
2023-11-10T03:51:01.897Z,10.20
2023-11-10T03:53:33.316Z,8.40
2023-11-10T03:56:04.936Z,11.40
2023-11-10T03:58:36.826Z,10.20
2023-11-10T04:01:13.159Z,11.70
2023-11-10T04:03:45.799Z,9.70
2023-11-10T04:06:19.022Z,8.40
2023-11-10T04:08:53.141Z,9.80
2023-11-10T04:11:25.162Z,10.60
2023-11-10T04:13:56.592Z,10.90
2023-11-10T04:16:28.688Z,9.90
2023-11-10T04:19:00.318Z,10.40
2023-11-10T04:21:32.342Z,10.60
2023-11-10T04:24:05.290Z,9.80
2023-11-10T04:26:37.021Z,11.30
2023-11-10T04:29:10.465Z,15.80
2023-11-10T04:31:42.265Z,18.70
2023-11-10T04:34:13.745Z,25.70
2023-11-10T04:36:47.734Z,24.50
2023-11-10T04:39:19.724Z,16.10
2023-11-10T04:41:51.355Z,11.80
2023-11-10T04:44:24.716Z,13.50
2023-11-10T04:46:56.090Z,11.80
2023-11-10T04:49:27.721Z,12.10
2023-11-10T04:51:59.523Z,11.30
2023-11-10T04:54:31.156Z,12.70
2023-11-10T04:57:02.626Z,10.10
2023-11-10T04:59:34.469Z,12.00
2023-11-10T05:02:06.062Z,11.90
2023-11-10T05:04:40.850Z,10.40
2023-11-10T05:09:42.059Z,9.00
2023-11-10T05:12:13.908Z,9.00
2023-11-10T05:14:45.683Z,9.40
2023-11-10T05:17:18.195Z,9.70
2023-11-10T05:19:49.829Z,10.10
2023-11-10T05:22:21.484Z,8.90
2023-11-10T05:24:54.304Z,8.80
2023-11-10T05:27:25.880Z,11.60
2023-11-10T05:29:57.553Z,10.30
2023-11-10T05:32:29.215Z,9.00
2023-11-10T05:35:00.687Z,11.50
2023-11-10T05:37:32.333Z,9.00
2023-11-10T05:40:03.800Z,11.90
2023-11-10T05:42:35.229Z,11.50
2023-11-10T05:45:07.823Z,12.00
2023-11-10T05:47:39.570Z,8.70
2023-11-10T05:50:12.525Z,9.50
2023-11-10T05:52:44.043Z,12.20
2023-11-10T05:55:15.532Z,10.70
2023-11-10T05:57:49.567Z,9.70
2023-11-10T06:00:23.891Z,10.60
2023-11-10T06:02:57.502Z,11.80
2023-11-10T06:05:31.258Z,13.10
2023-11-10T06:08:02.849Z,9.80
2023-11-10T06:10:35.321Z,12.10
2023-11-10T06:13:07.473Z,9.80
2023-11-10T06:15:39.672Z,9.00
2023-11-10T06:18:11.319Z,13.30
2023-11-10T06:20:42.907Z,12.50
2023-11-10T06:23:14.379Z,10.00
2023-11-10T06:25:46.135Z,12.40
2023-11-10T06:28:17.567Z,11.60
2023-11-10T06:30:49.277Z,11.60
2023-11-10T06:33:21.044Z,11.20
2023-11-10T06:35:52.630Z,12.90
2023-11-10T06:38:24.190Z,10.70
2023-11-10T06:40:55.868Z,15.00
2023-11-10T06:43:28.094Z,12.10
2023-11-10T06:45:59.518Z,14.60
2023-11-10T06:48:31.178Z,13.40
2023-11-10T06:51:03.780Z,12.40
2023-11-10T06:53:35.218Z,12.10
2023-11-10T06:56:07.178Z,10.00
2023-11-10T06:58:38.995Z,14.40
2023-11-10T07:01:11.272Z,18.40
2023-11-10T07:03:45.326Z,16.80
2023-11-10T07:06:19.119Z,19.00
2023-11-10T07:08:50.878Z,18.30
2023-11-10T07:11:23.153Z,17.50
2023-11-10T07:13:55.862Z,15.70
2023-11-10T07:16:28.330Z,15.10
2023-11-10T07:19:01.528Z,16.10
2023-11-10T07:21:33.341Z,14.50
2023-11-10T07:24:05.274Z,12.80
2023-11-10T07:26:37.287Z,9.80
2023-11-10T07:29:09.129Z,11.20
2023-11-10T07:31:40.933Z,12.10
2023-11-10T07:34:12.453Z,10.10
2023-11-10T07:36:44.114Z,11.10
2023-11-10T07:39:15.772Z,10.00
2023-11-10T07:41:47.431Z,9.80
2023-11-10T07:44:19.583Z,10.30
2023-11-10T07:46:52.547Z,9.50
2023-11-10T07:49:24.270Z,10.10
2023-11-10T07:51:55.865Z,8.30
2023-11-10T07:54:30.642Z,8.10
2023-11-10T07:59:31.805Z,9.40
2023-11-10T08:02:04.122Z,11.60
2023-11-10T08:04:38.066Z,10.30
2023-11-10T08:07:11.613Z,9.80
2023-11-10T08:09:43.084Z,9.00
2023-11-10T08:12:15.107Z,8.20
2023-11-10T08:14:46.980Z,10.60
2023-11-10T08:17:18.505Z,10.00
2023-11-10T08:19:51.564Z,11.00
2023-11-10T08:22:24.130Z,9.90
2023-11-10T08:24:57.668Z,9.80
2023-11-10T08:27:31.100Z,10.20
2023-11-10T08:30:04.713Z,8.80
2023-11-10T08:32:36.402Z,8.70
2023-11-10T08:35:10.189Z,9.40
2023-11-10T08:37:43.087Z,10.20
2023-11-10T08:40:15.545Z,8.40
2023-11-10T08:42:47.217Z,11.10
2023-11-10T08:45:19.341Z,9.90
2023-11-10T08:47:51.025Z,9.40
2023-11-10T08:50:22.673Z,12.00
2023-11-10T08:52:54.623Z,10.50
2023-11-10T08:55:26.503Z,10.10
2023-11-10T08:57:58.000Z,10.20
2023-11-10T09:00:29.752Z,11.40
2023-11-10T09:03:02.751Z,9.70
2023-11-10T09:05:34.564Z,11.10
2023-11-10T09:08:06.209Z,8.30
2023-11-10T09:10:37.845Z,10.50
2023-11-10T09:13:09.580Z,9.20
2023-11-10T09:15:45.706Z,9.50
2023-11-10T09:18:19.174Z,13.20
2023-11-10T09:20:50.811Z,12.70
2023-11-10T09:23:23.630Z,10.90
2023-11-10T09:25:55.538Z,9.40
2023-11-10T09:28:26.966Z,9.40
2023-11-10T09:30:58.643Z,10.00
2023-11-10T09:33:30.444Z,9.80
2023-11-10T09:36:01.909Z,12.10
2023-11-10T09:38:33.351Z,12.80
2023-11-10T09:41:05.448Z,14.20
2023-11-10T09:43:37.743Z,10.60
2023-11-10T09:46:11.192Z,11.80
2023-11-10T09:48:44.574Z,11.80
2023-11-10T09:51:16.520Z,11.90
2023-11-10T09:53:50.366Z,9.60
2023-11-10T09:56:23.815Z,12.60
2023-11-10T09:58:55.576Z,9.50
2023-11-10T10:01:27.171Z,13.20
2023-11-10T10:03:58.919Z,9.70
2023-11-10T10:06:31.227Z,9.80
2023-11-10T10:09:07.689Z,11.90
2023-11-10T10:11:41.174Z,10.80
2023-11-10T10:14:14.223Z,10.40
2023-11-10T10:17:00.131Z,11.40
2023-11-10T10:19:32.519Z,12.10
2023-11-10T10:22:04.468Z,9.90
2023-11-10T10:24:37.763Z,10.10
2023-11-10T10:27:09.315Z,10.40
2023-11-10T10:29:41.199Z,8.90
2023-11-10T10:32:12.916Z,8.70
2023-11-10T10:34:45.114Z,10.60
2023-11-10T10:37:18.719Z,11.20
2023-11-10T10:39:51.174Z,8.90
2023-11-10T10:42:26.399Z,8.90
2023-11-10T10:45:00.214Z,11.40
2023-11-10T10:47:34.003Z,9.70
2023-11-10T10:50:07.300Z,6.30
2023-11-10T10:52:39.206Z,9.50
2023-11-10T10:55:13.358Z,10.30
2023-11-10T10:57:46.778Z,9.00
2023-11-10T11:00:20.963Z,10.90
2023-11-10T11:02:57.797Z,8.60
2023-11-10T11:05:49.437Z,10.00
2023-11-10T11:08:46.133Z,9.50
2023-11-10T11:11:48.298Z,9.90
2023-11-10T11:14:42.914Z,8.40
2023-11-10T11:17:39.186Z,9.80
2023-11-10T11:20:15.228Z,9.70
2023-11-10T11:22:47.506Z,9.20
2023-11-10T11:25:21.337Z,7.50
2023-11-10T11:28:01.987Z,11.60
2023-11-10T11:30:42.610Z,8.40
2023-11-10T11:33:15.660Z,9.70
2023-11-10T11:35:51.533Z,8.00
2023-11-10T11:38:32.753Z,10.30
2023-11-10T11:41:08.867Z,8.90
2023-11-10T11:43:49.396Z,9.00
2023-11-10T11:46:21.044Z,9.40
2023-11-10T11:48:52.667Z,8.80
2023-11-10T11:51:25.088Z,12.00
2023-11-10T11:53:56.618Z,9.50
2023-11-10T11:56:28.978Z,10.80
2023-11-10T11:59:00.341Z,9.10
2023-11-10T12:01:31.852Z,10.20
2023-11-10T12:04:05.274Z,11.20
2023-11-10T12:06:38.434Z,11.00
2023-11-10T12:09:10.354Z,10.60
2023-11-10T12:11:42.328Z,9.00
2023-11-10T12:14:13.940Z,8.20
2023-11-10T12:16:49.026Z,10.80
2023-11-10T12:19:21.584Z,8.00
2023-11-10T12:21:53.302Z,8.10
2023-11-10T12:24:31.752Z,9.10
2023-11-10T12:27:03.553Z,7.80
2023-11-10T12:29:35.058Z,11.00
2023-11-10T12:32:07.338Z,7.40
2023-11-10T12:34:41.479Z,7.70
2023-11-10T12:37:15.273Z,9.40
2023-11-10T12:39:48.179Z,10.40
2023-11-10T12:42:21.333Z,9.40
2023-11-10T12:45:00.145Z,8.10
2023-11-10T12:47:40.707Z,8.10
2023-11-10T12:50:17.482Z,9.50
2023-11-10T12:52:54.145Z,8.00
2023-11-10T12:55:25.902Z,9.50
2023-11-10T12:57:59.188Z,9.70
2023-11-10T13:00:31.184Z,8.20
2023-11-10T13:03:04.872Z,8.00
2023-11-10T13:05:36.950Z,9.30
2023-11-10T13:08:09.340Z,8.70
2023-11-10T13:10:40.898Z,11.10
2023-11-10T13:13:12.740Z,9.40
2023-11-10T13:15:44.530Z,10.00
2023-11-10T13:18:18.242Z,10.10
2023-11-10T13:20:50.716Z,10.70
2023-11-10T13:23:22.218Z,10.50
2023-11-10T13:25:53.799Z,10.00
2023-11-10T13:28:35.083Z,9.00
2023-11-10T13:31:24.784Z,13.60
2023-11-10T13:34:01.257Z,12.70
2023-11-10T13:36:32.877Z,14.60
2023-11-10T13:39:04.504Z,14.90
2023-11-10T13:41:43.609Z,14.20
2023-11-10T13:44:20.025Z,12.10
2023-11-10T13:46:51.814Z,10.70
2023-11-10T13:49:23.854Z,9.60
2023-11-10T13:51:57.078Z,8.50
2023-11-10T13:54:29.669Z,12.70
2023-11-10T13:57:05.645Z,10.20
2023-11-10T13:59:40.868Z,11.00
2023-11-10T14:02:12.827Z,10.20
2023-11-10T14:04:44.470Z,12.30
2023-11-10T14:07:16.889Z,12.30
2023-11-10T14:09:49.395Z,12.60
2023-11-10T14:12:21.423Z,13.60
2023-11-10T14:14:54.478Z,14.30
2023-11-10T14:17:26.042Z,10.20
2023-11-10T14:19:57.491Z,10.40
2023-11-10T14:22:30.666Z,12.30
2023-11-10T14:25:03.157Z,10.50
2023-11-10T14:27:34.801Z,10.30
2023-11-10T14:30:09.718Z,11.40
2023-11-10T14:32:41.626Z,10.90
2023-11-10T14:35:13.995Z,11.50
2023-11-10T14:37:45.746Z,11.20
2023-11-10T14:40:20.043Z,8.80
2023-11-10T14:42:51.756Z,13.50
2023-11-10T14:45:24.041Z,10.00
2023-11-10T14:47:56.989Z,12.60
2023-11-10T14:50:38.505Z,13.10
2023-11-10T14:53:18.101Z,11.20
2023-11-10T14:55:50.672Z,13.50
2023-11-10T14:58:22.582Z,10.80
2023-11-10T15:00:55.080Z,10.40
2023-11-10T15:03:26.688Z,11.30
2023-11-10T15:05:58.596Z,11.80
2023-11-10T15:08:30.030Z,13.00
2023-11-10T15:11:04.130Z,20.30
2023-11-10T15:13:35.664Z,16.10
2023-11-10T15:16:08.609Z,17.40
2023-11-10T15:18:41.097Z,15.90
2023-11-10T15:21:12.811Z,14.70
2023-11-10T15:23:44.265Z,19.40
2023-11-10T15:26:15.885Z,29.60
2023-11-10T15:28:50.236Z,31.10
2023-11-10T15:31:23.321Z,32.80
2023-11-10T15:33:55.096Z,32.10
2023-11-10T15:36:30.546Z,39.80
2023-11-10T15:39:10.041Z,45.30
2023-11-10T15:41:48.293Z,39.60
2023-11-10T15:44:19.785Z,32.00
2023-11-10T15:46:53.081Z,34.60
2023-11-10T15:49:25.092Z,52.00
2023-11-10T15:51:57.887Z,128.00
2023-11-10T15:54:30.001Z,113.70
2023-11-10T15:57:01.450Z,111.60
2023-11-10T15:59:33.366Z,80.60
2023-11-10T16:02:08.084Z,77.70
2023-11-10T16:04:39.799Z,70.10
2023-11-10T16:07:11.506Z,48.30
2023-11-10T16:09:46.390Z,38.40
2023-11-10T16:12:17.984Z,40.50
2023-11-10T16:14:51.345Z,35.80
2023-11-10T16:17:23.170Z,29.70
2023-11-10T16:19:54.822Z,25.60
2023-11-10T16:22:26.280Z,23.20
2023-11-10T16:24:58.029Z,19.20
2023-11-10T16:27:30.029Z,17.50
2023-11-10T16:30:01.657Z,14.80
2023-11-10T16:32:34.644Z,16.30
2023-11-10T16:35:07.691Z,16.60
2023-11-10T16:37:40.782Z,19.10
2023-11-10T16:40:14.682Z,16.10
2023-11-10T16:42:47.352Z,20.40
2023-11-10T16:45:19.436Z,18.90
2023-11-10T16:47:52.421Z,17.50
2023-11-10T16:50:24.599Z,17.20
2023-11-10T16:52:56.346Z,18.80
2023-11-10T16:55:27.956Z,21.20
2023-11-10T16:57:59.954Z,17.90
2023-11-10T17:00:40.121Z,17.40
2023-11-10T17:03:15.535Z,16.50
2023-11-10T17:05:51.664Z,19.40
2023-11-10T17:08:23.624Z,19.30
2023-11-10T17:10:55.948Z,20.30
2023-11-10T17:13:36.900Z,22.40
2023-11-10T17:16:09.623Z,25.10
2023-11-10T17:18:41.924Z,24.60
2023-11-10T17:21:13.935Z,30.90
2023-11-10T17:23:45.472Z,31.30
2023-11-10T17:26:17.355Z,35.40
2023-11-10T17:28:48.960Z,30.70
2023-11-10T17:31:20.762Z,30.20
2023-11-10T17:33:53.364Z,26.10
2023-11-10T17:36:25.436Z,28.30
2023-11-10T17:38:58.250Z,24.70
2023-11-10T17:41:30.180Z,23.70
2023-11-10T17:44:03.175Z,25.50
2023-11-10T17:46:35.334Z,26.80
2023-11-10T17:49:15.431Z,23.80
2023-11-10T17:51:47.130Z,31.00
2023-11-10T17:54:19.397Z,32.20
2023-11-10T17:56:51.363Z,46.20
2023-11-10T17:59:24.729Z,62.10
2023-11-10T18:01:58.448Z,113.00
2023-11-10T18:04:30.476Z,92.60
2023-11-10T18:07:02.705Z,60.20
2023-11-10T18:09:35.035Z,50.60
2023-11-10T18:12:07.788Z,47.10
2023-11-10T18:14:39.548Z,57.50
2023-11-10T18:17:11.286Z,59.80
2023-11-10T18:19:45.828Z,59.60
2023-11-10T18:22:18.486Z,47.20
2023-11-10T18:24:55.555Z,55.70
2023-11-10T18:27:32.912Z,51.10
2023-11-10T18:30:16.378Z,43.10
2023-11-10T18:33:10.100Z,39.60
2023-11-10T18:35:51.389Z,38.40
2023-11-10T18:38:28.635Z,33.60
2023-11-10T18:41:03.547Z,34.00
2023-11-10T18:43:45.517Z,29.60
2023-11-10T18:46:27.692Z,33.70
2023-11-10T18:49:02.421Z,31.70
2023-11-10T18:54:34.549Z,31.50
2023-11-10T18:57:16.434Z,29.30
2023-11-10T19:00:22.004Z,30.70
2023-11-10T19:03:07.131Z,30.10
2023-11-10T19:05:42.491Z,31.50
2023-11-10T19:08:20.758Z,35.40
2023-11-10T19:10:55.996Z,37.20
2023-11-10T19:13:31.857Z,32.80
2023-11-10T19:16:08.181Z,32.10
2023-11-10T19:18:44.681Z,36.30
2023-11-10T19:21:24.150Z,35.00
2023-11-10T19:24:00.135Z,35.10
2023-11-10T19:26:35.663Z,32.60
2023-11-10T19:29:10.622Z,37.40
2023-11-10T19:31:48.372Z,39.00
2023-11-10T19:34:23.394Z,36.40
2023-11-10T19:36:59.180Z,30.10
2023-11-10T19:39:35.618Z,30.60
2023-11-10T19:42:12.357Z,36.00
2023-11-10T19:44:49.481Z,35.40
2023-11-10T19:47:25.779Z,32.20
2023-11-10T19:50:01.563Z,31.20
2023-11-10T19:52:36.321Z,35.50
2023-11-10T19:57:46.954Z,33.30
2023-11-10T20:03:02.841Z,34.80
2023-11-10T20:05:38.817Z,39.70
2023-11-10T20:08:15.055Z,30.30
2023-11-10T20:10:51.255Z,28.80
2023-11-10T20:13:26.887Z,34.30
2023-11-10T20:16:03.683Z,31.10
2023-11-10T20:18:41.480Z,33.10
2023-11-10T20:21:21.477Z,29.50
2023-11-10T20:23:58.905Z,29.60
2023-11-10T20:26:33.230Z,31.30
2023-11-10T20:29:08.353Z,27.20
2023-11-10T20:31:43.283Z,29.70
2023-11-10T20:34:18.386Z,31.80
2023-11-10T20:36:53.488Z,31.50
2023-11-10T20:39:28.556Z,28.10
2023-11-10T20:42:03.596Z,28.40
2023-11-10T20:44:40.817Z,30.50
2023-11-10T20:47:17.805Z,30.40
2023-11-10T20:49:55.898Z,31.90
2023-11-10T20:52:32.005Z,33.30
2023-11-10T20:55:07.063Z,28.40
2023-11-10T20:57:41.514Z,33.50
2023-11-10T21:00:17.298Z,28.60
2023-11-10T21:02:50.169Z,28.90
2023-11-10T21:05:22.496Z,33.50
2023-11-10T21:07:55.295Z,34.40
2023-11-10T21:10:27.729Z,32.10
2023-11-10T21:12:59.364Z,29.40
2023-11-10T21:15:34.016Z,29.50
2023-11-10T21:18:07.316Z,32.80
2023-11-10T21:20:39.501Z,33.40
2023-11-10T21:23:13.061Z,27.00
2023-11-10T21:25:45.941Z,29.80
2023-11-10T21:28:18.651Z,29.90
2023-11-10T21:30:50.757Z,31.70
2023-11-10T21:33:26.208Z,33.20
2023-11-10T21:35:58.403Z,28.80
2023-11-10T21:38:30.109Z,29.20
2023-11-10T21:41:01.771Z,29.40
2023-11-10T21:43:33.764Z,28.70
2023-11-10T21:46:05.825Z,29.90
2023-11-10T21:48:38.387Z,31.20
2023-11-10T21:51:10.279Z,29.60
2023-11-10T21:53:41.700Z,30.20
2023-11-10T21:56:17.729Z,27.60
2023-11-10T21:58:49.115Z,26.00
2023-11-10T22:01:20.593Z,26.40
2023-11-10T22:03:52.586Z,29.90
2023-11-10T22:06:25.140Z,30.10
2023-11-10T22:08:56.623Z,33.10
2023-11-10T22:11:28.077Z,32.30
2023-11-10T22:13:59.696Z,32.60
2023-11-10T22:16:31.312Z,30.70
2023-11-10T22:19:07.464Z,29.60
2023-11-10T22:21:44.045Z,27.30
2023-11-10T22:24:16.156Z,34.30
2023-11-10T22:26:47.908Z,27.70
2023-11-10T22:29:19.377Z,26.90
2023-11-10T22:31:50.984Z,28.80
2023-11-10T22:34:22.712Z,25.90
2023-11-10T22:36:54.813Z,30.90
2023-11-10T22:39:27.251Z,30.20
2023-11-10T22:41:59.077Z,26.60
2023-11-10T22:44:30.465Z,25.40
2023-11-10T22:47:01.812Z,26.30
2023-11-10T22:49:33.319Z,29.50
2023-11-10T22:52:06.558Z,25.70
2023-11-10T22:54:38.078Z,23.80
2023-11-10T22:57:10.521Z,30.20
2023-11-10T22:59:42.131Z,30.40
2023-11-10T23:02:13.779Z,31.30
2023-11-10T23:04:46.451Z,32.20
2023-11-10T23:07:17.877Z,31.50
2023-11-10T23:09:49.731Z,30.30
2023-11-10T23:12:24.710Z,28.70
2023-11-10T23:14:56.169Z,29.10
2023-11-10T23:17:27.599Z,29.10
2023-11-10T23:20:00.194Z,29.90
2023-11-10T23:22:31.682Z,27.30
2023-11-10T23:25:03.104Z,27.00
2023-11-10T23:27:36.042Z,27.50
2023-11-10T23:30:09.103Z,27.10
2023-11-10T23:32:41.160Z,32.20
2023-11-10T23:35:13.433Z,28.30
2023-11-10T23:37:45.115Z,28.20
2023-11-10T23:40:17.207Z,29.00
2023-11-10T23:42:48.692Z,26.50
2023-11-10T23:45:20.136Z,26.50
2023-11-10T23:47:51.698Z,29.40
2023-11-10T23:50:23.093Z,27.90
2023-11-10T23:52:54.793Z,25.50
2023-11-10T23:55:27.320Z,25.00
2023-11-10T23:57:58.617Z,24.80
